sensor_id;sensor_type;location;lat;lon;timestamp;temperature;humidity
12655;DHT22;6392;44.644;11.448;2022-07-06T00:01:31;28.00;99.90
12655;DHT22;6392;44.644;11.448;2022-07-06T00:04:01;28.00;99.90
12655;DHT22;6392;44.644;11.448;2022-07-06T00:06:28;27.90;99.90
12655;DHT22;6392;44.644;11.448;2022-07-06T00:08:57;27.80;99.90
12655;DHT22;6392;44.644;11.448;2022-07-06T00:11:27;27.80;99.90
12655;DHT22;6392;44.644;11.448;2022-07-06T00:13:55;27.70;99.90
12655;DHT22;6392;44.644;11.448;2022-07-06T00:16:23;27.70;99.90
12655;DHT22;6392;44.644;11.448;2022-07-06T00:18:51;27.80;99.90
12655;DHT22;6392;44.644;11.448;2022-07-06T00:21:18;27.60;99.90
12655;DHT22;6392;44.644;11.448;2022-07-06T00:23:46;27.50;99.90
12655;DHT22;6392;44.644;11.448;2022-07-06T00:26:15;27.50;99.90
12655;DHT22;6392;44.644;11.448;2022-07-06T00:28:44;27.50;99.90
12655;DHT22;6392;44.644;11.448;2022-07-06T00:31:12;27.40;99.90
12655;DHT22;6392;44.644;11.448;2022-07-06T00:33:39;27.50;99.90
12655;DHT22;6392;44.644;11.448;2022-07-06T00:36:07;27.40;99.90
12655;DHT22;6392;44.644;11.448;2022-07-06T00:38:36;27.40;99.90
12655;DHT22;6392;44.644;11.448;2022-07-06T00:41:04;27.40;99.90
12655;DHT22;6392;44.644;11.448;2022-07-06T00:43:56;27.40;99.90
12655;DHT22;6392;44.644;11.448;2022-07-06T00:46:27;27.40;99.90
12655;DHT22;6392;44.644;11.448;2022-07-06T00:48:55;27.40;99.90
12655;DHT22;6392;44.644;11.448;2022-07-06T00:51:25;27.30;99.90
12655;DHT22;6392;44.644;11.448;2022-07-06T00:53:55;27.30;99.90
12655;DHT22;6392;44.644;11.448;2022-07-06T00:56:25;27.30;99.90
12655;DHT22;6392;44.644;11.448;2022-07-06T00:58:53;27.40;99.90
12655;DHT22;6392;44.644;11.448;2022-07-06T01:01:22;27.30;99.90
12655;DHT22;6392;44.644;11.448;2022-07-06T01:03:50;27.30;99.90
12655;DHT22;6392;44.644;11.448;2022-07-06T01:06:17;27.30;99.90
12655;DHT22;6392;44.644;11.448;2022-07-06T01:08:45;27.20;99.90
12655;DHT22;6392;44.644;11.448;2022-07-06T01:11:12;27.20;99.90
12655;DHT22;6392;44.644;11.448;2022-07-06T01:13:41;27.20;99.90
12655;DHT22;6392;44.644;11.448;2022-07-06T01:16:09;27.20;99.90
12655;DHT22;6392;44.644;11.448;2022-07-06T01:18:46;27.20;99.90
12655;DHT22;6392;44.644;11.448;2022-07-06T01:21:15;27.20;99.90
12655;DHT22;6392;44.644;11.448;2022-07-06T01:23:44;27.20;99.90
12655;DHT22;6392;44.644;11.448;2022-07-06T01:26:18;27.20;99.90
12655;DHT22;6392;44.644;11.448;2022-07-06T01:28:46;27.20;99.90
12655;DHT22;6392;44.644;11.448;2022-07-06T01:31:17;27.10;99.90
12655;DHT22;6392;44.644;11.448;2022-07-06T01:33:44;27.10;99.90
12655;DHT22;6392;44.644;11.448;2022-07-06T01:36:21;27.10;99.90
12655;DHT22;6392;44.644;11.448;2022-07-06T01:38:56;27.10;99.90
12655;DHT22;6392;44.644;11.448;2022-07-06T01:41:25;27.10;99.90
12655;DHT22;6392;44.644;11.448;2022-07-06T01:43:57;27.10;99.90
12655;DHT22;6392;44.644;11.448;2022-07-06T01:46:24;27.10;99.90
12655;DHT22;6392;44.644;11.448;2022-07-06T01:48:52;27.00;99.90
12655;DHT22;6392;44.644;11.448;2022-07-06T01:51:19;27.10;99.90
12655;DHT22;6392;44.644;11.448;2022-07-06T01:53:48;27.10;99.90
12655;DHT22;6392;44.644;11.448;2022-07-06T01:56:15;27.10;99.90
12655;DHT22;6392;44.644;11.448;2022-07-06T01:58:43;27.00;99.90
12655;DHT22;6392;44.644;11.448;2022-07-06T02:01:11;27.00;99.90
12655;DHT22;6392;44.644;11.448;2022-07-06T02:03:39;27.10;99.90
12655;DHT22;6392;44.644;11.448;2022-07-06T02:06:07;27.00;99.90
12655;DHT22;6392;44.644;11.448;2022-07-06T02:08:35;27.00;99.90
12655;DHT22;6392;44.644;11.448;2022-07-06T02:11:04;27.00;99.90
12655;DHT22;6392;44.644;11.448;2022-07-06T02:13:32;26.90;99.90
12655;DHT22;6392;44.644;11.448;2022-07-06T02:15:59;26.90;99.90
12655;DHT22;6392;44.644;11.448;2022-07-06T02:18:31;26.90;99.90
12655;DHT22;6392;44.644;11.448;2022-07-06T02:21:00;26.90;99.90
12655;DHT22;6392;44.644;11.448;2022-07-06T02:23:27;27.00;99.90
12655;DHT22;6392;44.644;11.448;2022-07-06T02:25:54;26.90;99.90
12655;DHT22;6392;44.644;11.448;2022-07-06T02:28:23;26.90;99.90
12655;DHT22;6392;44.644;11.448;2022-07-06T02:30:51;26.80;99.90
12655;DHT22;6392;44.644;11.448;2022-07-06T02:33:19;26.80;99.90
12655;DHT22;6392;44.644;11.448;2022-07-06T02:35:46;26.80;99.90
12655;DHT22;6392;44.644;11.448;2022-07-06T02:38:13;26.80;99.90
12655;DHT22;6392;44.644;11.448;2022-07-06T02:40:40;26.80;99.90
12655;DHT22;6392;44.644;11.448;2022-07-06T02:43:08;26.70;99.90
12655;DHT22;6392;44.644;11.448;2022-07-06T02:45:36;26.70;99.90
12655;DHT22;6392;44.644;11.448;2022-07-06T02:48:04;26.70;99.90
12655;DHT22;6392;44.644;11.448;2022-07-06T02:50:31;26.70;99.90
12655;DHT22;6392;44.644;11.448;2022-07-06T02:52:58;26.70;99.90
12655;DHT22;6392;44.644;11.448;2022-07-06T02:55:27;26.70;99.90
12655;DHT22;6392;44.644;11.448;2022-07-06T02:57:54;26.70;99.90
12655;DHT22;6392;44.644;11.448;2022-07-06T03:00:22;26.60;99.90
12655;DHT22;6392;44.644;11.448;2022-07-06T03:02:53;26.60;99.90
12655;DHT22;6392;44.644;11.448;2022-07-06T03:05:21;26.60;99.90
12655;DHT22;6392;44.644;11.448;2022-07-06T03:07:48;26.60;99.90
12655;DHT22;6392;44.644;11.448;2022-07-06T03:10:15;26.50;99.90
12655;DHT22;6392;44.644;11.448;2022-07-06T03:12:42;26.60;99.90
12655;DHT22;6392;44.644;11.448;2022-07-06T03:15:10;26.60;99.90
12655;DHT22;6392;44.644;11.448;2022-07-06T03:17:44;26.70;99.90
12655;DHT22;6392;44.644;11.448;2022-07-06T03:20:13;26.70;99.90
12655;DHT22;6392;44.644;11.448;2022-07-06T03:22:43;26.60;99.90
12655;DHT22;6392;44.644;11.448;2022-07-06T03:25:10;26.50;99.90
12655;DHT22;6392;44.644;11.448;2022-07-06T03:27:37;26.50;99.90
12655;DHT22;6392;44.644;11.448;2022-07-06T03:30:05;26.60;99.90
12655;DHT22;6392;44.644;11.448;2022-07-06T03:32:35;26.60;99.90
12655;DHT22;6392;44.644;11.448;2022-07-06T03:35:03;26.60;99.90
12655;DHT22;6392;44.644;11.448;2022-07-06T03:37:32;26.60;99.90
12655;DHT22;6392;44.644;11.448;2022-07-06T03:40:01;26.70;99.90
12655;DHT22;6392;44.644;11.448;2022-07-06T03:42:29;26.60;99.90
12655;DHT22;6392;44.644;11.448;2022-07-06T03:44:56;26.70;99.90
12655;DHT22;6392;44.644;11.448;2022-07-06T03:47:23;26.70;99.90
12655;DHT22;6392;44.644;11.448;2022-07-06T03:49:51;26.80;99.90
12655;DHT22;6392;44.644;11.448;2022-07-06T03:52:18;26.80;99.90
12655;DHT22;6392;44.644;11.448;2022-07-06T03:54:48;26.80;99.90
12655;DHT22;6392;44.644;11.448;2022-07-06T03:57:15;26.80;99.90
12655;DHT22;6392;44.644;11.448;2022-07-06T03:59:42;26.80;99.90
12655;DHT22;6392;44.644;11.448;2022-07-06T04:02:10;26.90;99.90
12655;DHT22;6392;44.644;11.448;2022-07-06T04:04:37;27.00;99.90
12655;DHT22;6392;44.644;11.448;2022-07-06T04:07:09;27.10;99.90
12655;DHT22;6392;44.644;11.448;2022-07-06T04:09:36;27.10;99.90
12655;DHT22;6392;44.644;11.448;2022-07-06T04:12:07;27.00;99.90
12655;DHT22;6392;44.644;11.448;2022-07-06T04:14:43;27.00;99.90
12655;DHT22;6392;44.644;11.448;2022-07-06T04:17:10;27.00;99.90
12655;DHT22;6392;44.644;11.448;2022-07-06T04:19:52;27.00;99.90
12655;DHT22;6392;44.644;11.448;2022-07-06T04:22:19;26.80;99.90
12655;DHT22;6392;44.644;11.448;2022-07-06T04:25:00;26.80;99.90
12655;DHT22;6392;44.644;11.448;2022-07-06T04:27:28;26.90;99.90
12655;DHT22;6392;44.644;11.448;2022-07-06T04:29:55;27.00;99.90
12655;DHT22;6392;44.644;11.448;2022-07-06T04:32:22;26.90;99.90
12655;DHT22;6392;44.644;11.448;2022-07-06T04:34:49;26.90;99.90
12655;DHT22;6392;44.644;11.448;2022-07-06T04:37:22;26.80;99.90
12655;DHT22;6392;44.644;11.448;2022-07-06T04:39:49;26.60;99.90
12655;DHT22;6392;44.644;11.448;2022-07-06T04:42:19;26.20;99.90
12655;DHT22;6392;44.644;11.448;2022-07-06T04:44:48;25.90;99.90
12655;DHT22;6392;44.644;11.448;2022-07-06T04:47:17;25.70;99.90
12655;DHT22;6392;44.644;11.448;2022-07-06T04:49:45;25.50;99.90
12655;DHT22;6392;44.644;11.448;2022-07-06T04:52:12;25.50;99.90
12655;DHT22;6392;44.644;11.448;2022-07-06T04:54:39;25.40;99.90
12655;DHT22;6392;44.644;11.448;2022-07-06T04:57:06;25.40;99.90
12655;DHT22;6392;44.644;11.448;2022-07-06T04:59:38;25.40;99.90
12655;DHT22;6392;44.644;11.448;2022-07-06T05:02:06;25.30;99.90
12655;DHT22;6392;44.644;11.448;2022-07-06T05:04:33;25.30;99.90
12655;DHT22;6392;44.644;11.448;2022-07-06T05:07:01;25.20;99.90
12655;DHT22;6392;44.644;11.448;2022-07-06T05:09:28;25.20;99.90
12655;DHT22;6392;44.644;11.448;2022-07-06T05:11:55;25.30;99.90
12655;DHT22;6392;44.644;11.448;2022-07-06T05:14:23;25.40;99.90
12655;DHT22;6392;44.644;11.448;2022-07-06T05:16:50;25.50;99.90
12655;DHT22;6392;44.644;11.448;2022-07-06T05:19:24;25.60;99.90
12655;DHT22;6392;44.644;11.448;2022-07-06T05:21:56;25.80;99.90
12655;DHT22;6392;44.644;11.448;2022-07-06T05:24:23;25.80;99.90
12655;DHT22;6392;44.644;11.448;2022-07-06T05:26:50;25.90;99.90
12655;DHT22;6392;44.644;11.448;2022-07-06T05:29:20;25.80;99.90
12655;DHT22;6392;44.644;11.448;2022-07-06T05:31:48;25.60;99.90
12655;DHT22;6392;44.644;11.448;2022-07-06T05:34:16;25.50;99.90
12655;DHT22;6392;44.644;11.448;2022-07-06T05:36:50;25.50;99.90
12655;DHT22;6392;44.644;11.448;2022-07-06T05:39:18;25.50;99.90
12655;DHT22;6392;44.644;11.448;2022-07-06T05:41:50;25.60;99.90
12655;DHT22;6392;44.644;11.448;2022-07-06T05:44:24;25.60;99.90
12655;DHT22;6392;44.644;11.448;2022-07-06T05:46:51;25.70;99.90
12655;DHT22;6392;44.644;11.448;2022-07-06T05:49:38;25.90;99.90
12655;DHT22;6392;44.644;11.448;2022-07-06T05:52:24;26.10;99.90
12655;DHT22;6392;44.644;11.448;2022-07-06T05:54:52;26.20;99.90
12655;DHT22;6392;44.644;11.448;2022-07-06T05:57:21;26.10;99.90
12655;DHT22;6392;44.644;11.448;2022-07-06T05:59:51;26.00;99.90
12655;DHT22;6392;44.644;11.448;2022-07-06T06:02:18;26.00;99.90
12655;DHT22;6392;44.644;11.448;2022-07-06T06:04:45;25.90;99.90
12655;DHT22;6392;44.644;11.448;2022-07-06T06:07:12;25.90;99.90
12655;DHT22;6392;44.644;11.448;2022-07-06T06:09:41;26.00;99.90
12655;DHT22;6392;44.644;11.448;2022-07-06T06:12:09;26.20;99.90
12655;DHT22;6392;44.644;11.448;2022-07-06T06:14:36;26.20;99.90
12655;DHT22;6392;44.644;11.448;2022-07-06T06:17:03;26.20;99.90
12655;DHT22;6392;44.644;11.448;2022-07-06T06:19:34;26.30;99.90
12655;DHT22;6392;44.644;11.448;2022-07-06T06:22:03;26.40;99.90
12655;DHT22;6392;44.644;11.448;2022-07-06T06:24:31;26.50;99.90
12655;DHT22;6392;44.644;11.448;2022-07-06T06:26:59;26.60;99.90
12655;DHT22;6392;44.644;11.448;2022-07-06T06:29:36;26.60;99.90
12655;DHT22;6392;44.644;11.448;2022-07-06T06:32:04;26.50;99.90
12655;DHT22;6392;44.644;11.448;2022-07-06T06:34:31;26.30;99.90
12655;DHT22;6392;44.644;11.448;2022-07-06T06:37:01;26.30;99.90
12655;DHT22;6392;44.644;11.448;2022-07-06T06:39:28;26.30;99.90
12655;DHT22;6392;44.644;11.448;2022-07-06T06:42:07;26.20;99.90
12655;DHT22;6392;44.644;11.448;2022-07-06T06:44:34;26.30;99.90
12655;DHT22;6392;44.644;11.448;2022-07-06T06:47:01;26.30;99.90
12655;DHT22;6392;44.644;11.448;2022-07-06T06:49:28;26.30;99.90
12655;DHT22;6392;44.644;11.448;2022-07-06T06:51:55;26.40;99.90
12655;DHT22;6392;44.644;11.448;2022-07-06T06:54:22;26.50;99.90
12655;DHT22;6392;44.644;11.448;2022-07-06T06:56:49;26.50;99.90
12655;DHT22;6392;44.644;11.448;2022-07-06T06:59:18;26.50;99.90
12655;DHT22;6392;44.644;11.448;2022-07-06T07:01:46;26.50;99.90
12655;DHT22;6392;44.644;11.448;2022-07-06T07:04:14;26.40;99.90
12655;DHT22;6392;44.644;11.448;2022-07-06T07:06:41;26.40;99.90
12655;DHT22;6392;44.644;11.448;2022-07-06T07:09:08;26.40;99.90
12655;DHT22;6392;44.644;11.448;2022-07-06T07:11:48;26.40;99.90
12655;DHT22;6392;44.644;11.448;2022-07-06T07:14:15;26.30;99.90
12655;DHT22;6392;44.644;11.448;2022-07-06T07:16:44;26.30;99.90
12655;DHT22;6392;44.644;11.448;2022-07-06T07:19:11;26.40;99.90
12655;DHT22;6392;44.644;11.448;2022-07-06T07:21:38;26.40;99.90
12655;DHT22;6392;44.644;11.448;2022-07-06T07:24:06;26.50;99.90
12655;DHT22;6392;44.644;11.448;2022-07-06T07:26:34;26.50;99.90
12655;DHT22;6392;44.644;11.448;2022-07-06T07:29:02;26.70;99.90
12655;DHT22;6392;44.644;11.448;2022-07-06T07:31:29;26.70;99.90
12655;DHT22;6392;44.644;11.448;2022-07-06T07:34:02;26.80;99.90
12655;DHT22;6392;44.644;11.448;2022-07-06T07:36:30;26.90;99.90
12655;DHT22;6392;44.644;11.448;2022-07-06T07:38:57;27.00;99.90
12655;DHT22;6392;44.644;11.448;2022-07-06T07:41:24;27.10;99.90
12655;DHT22;6392;44.644;11.448;2022-07-06T07:43:51;27.00;99.90
12655;DHT22;6392;44.644;11.448;2022-07-06T07:46:18;27.00;99.90
12655;DHT22;6392;44.644;11.448;2022-07-06T07:48:45;27.00;99.90
12655;DHT22;6392;44.644;11.448;2022-07-06T07:51:14;27.10;99.90
12655;DHT22;6392;44.644;11.448;2022-07-06T07:53:46;27.10;99.90
12655;DHT22;6392;44.644;11.448;2022-07-06T07:56:14;27.20;99.90
12655;DHT22;6392;44.644;11.448;2022-07-06T07:58:42;27.20;99.90
12655;DHT22;6392;44.644;11.448;2022-07-06T08:01:10;27.30;99.90
12655;DHT22;6392;44.644;11.448;2022-07-06T08:03:43;27.30;99.90
12655;DHT22;6392;44.644;11.448;2022-07-06T08:06:10;27.30;99.90
12655;DHT22;6392;44.644;11.448;2022-07-06T08:08:39;27.30;99.90
12655;DHT22;6392;44.644;11.448;2022-07-06T08:11:07;27.40;99.90
12655;DHT22;6392;44.644;11.448;2022-07-06T08:13:37;27.40;99.90
12655;DHT22;6392;44.644;11.448;2022-07-06T08:16:04;27.40;99.90
12655;DHT22;6392;44.644;11.448;2022-07-06T08:18:35;27.40;99.90
12655;DHT22;6392;44.644;11.448;2022-07-06T08:21:07;27.40;99.90
12655;DHT22;6392;44.644;11.448;2022-07-06T08:23:36;27.30;99.90
12655;DHT22;6392;44.644;11.448;2022-07-06T08:26:05;27.30;99.90
12655;DHT22;6392;44.644;11.448;2022-07-06T08:28:33;27.30;99.90
12655;DHT22;6392;44.644;11.448;2022-07-06T08:31:00;27.30;99.90
12655;DHT22;6392;44.644;11.448;2022-07-06T08:33:34;27.30;99.90
12655;DHT22;6392;44.644;11.448;2022-07-06T08:36:17;27.40;99.90
12655;DHT22;6392;44.644;11.448;2022-07-06T08:38:44;27.30;99.90
12655;DHT22;6392;44.644;11.448;2022-07-06T08:41:15;27.40;99.90
12655;DHT22;6392;44.644;11.448;2022-07-06T08:43:42;27.30;99.90
12655;DHT22;6392;44.644;11.448;2022-07-06T08:46:13;27.40;99.90
12655;DHT22;6392;44.644;11.448;2022-07-06T08:48:41;27.40;99.90
12655;DHT22;6392;44.644;11.448;2022-07-06T08:51:11;27.40;99.90
12655;DHT22;6392;44.644;11.448;2022-07-06T08:53:40;27.40;99.90
12655;DHT22;6392;44.644;11.448;2022-07-06T08:56:16;27.40;99.90
12655;DHT22;6392;44.644;11.448;2022-07-06T08:58:45;27.40;99.90
12655;DHT22;6392;44.644;11.448;2022-07-06T09:01:12;27.40;99.90
12655;DHT22;6392;44.644;11.448;2022-07-06T09:03:40;27.60;99.90
12655;DHT22;6392;44.644;11.448;2022-07-06T09:06:08;27.50;99.90
12655;DHT22;6392;44.644;11.448;2022-07-06T09:08:37;27.50;99.90
12655;DHT22;6392;44.644;11.448;2022-07-06T09:11:07;27.50;99.90
12655;DHT22;6392;44.644;11.448;2022-07-06T09:13:36;27.50;99.90
12655;DHT22;6392;44.644;11.448;2022-07-06T09:16:10;27.50;99.90
12655;DHT22;6392;44.644;11.448;2022-07-06T09:18:37;27.60;99.90
12655;DHT22;6392;44.644;11.448;2022-07-06T09:21:05;27.50;99.90
12655;DHT22;6392;44.644;11.448;2022-07-06T09:23:36;27.50;99.90
12655;DHT22;6392;44.644;11.448;2022-07-06T09:26:06;27.60;99.90
12655;DHT22;6392;44.644;11.448;2022-07-06T09:28:44;27.60;99.90
12655;DHT22;6392;44.644;11.448;2022-07-06T09:31:12;27.60;99.90
12655;DHT22;6392;44.644;11.448;2022-07-06T09:33:39;27.60;99.90
12655;DHT22;6392;44.644;11.448;2022-07-06T09:36:37;27.60;99.90
12655;DHT22;6392;44.644;11.448;2022-07-06T09:39:21;27.50;99.90
12655;DHT22;6392;44.644;11.448;2022-07-06T09:41:49;27.60;99.90
12655;DHT22;6392;44.644;11.448;2022-07-06T09:44:25;27.60;99.90
12655;DHT22;6392;44.644;11.448;2022-07-06T09:46:58;27.60;99.90
12655;DHT22;6392;44.644;11.448;2022-07-06T09:49:26;27.60;99.90
12655;DHT22;6392;44.644;11.448;2022-07-06T09:51:56;27.60;99.90
12655;DHT22;6392;44.644;11.448;2022-07-06T09:54:24;27.60;99.90
12655;DHT22;6392;44.644;11.448;2022-07-06T09:56:52;27.60;99.90
12655;DHT22;6392;44.644;11.448;2022-07-06T09:59:22;27.60;99.90
12655;DHT22;6392;44.644;11.448;2022-07-06T10:01:53;27.60;99.90
12655;DHT22;6392;44.644;11.448;2022-07-06T10:04:21;27.60;99.90
12655;DHT22;6392;44.644;11.448;2022-07-06T10:06:51;27.60;99.90
12655;DHT22;6392;44.644;11.448;2022-07-06T10:09:26;27.60;99.90
12655;DHT22;6392;44.644;11.448;2022-07-06T10:11:55;27.60;99.90
12655;DHT22;6392;44.644;11.448;2022-07-06T10:14:24;27.60;99.90
12655;DHT22;6392;44.644;11.448;2022-07-06T10:16:53;27.60;99.90
12655;DHT22;6392;44.644;11.448;2022-07-06T10:19:21;27.60;99.90
12655;DHT22;6392;44.644;11.448;2022-07-06T10:21:49;27.50;99.90
12655;DHT22;6392;44.644;11.448;2022-07-06T10:24:18;27.60;99.90
12655;DHT22;6392;44.644;11.448;2022-07-06T10:26:46;27.60;99.90
12655;DHT22;6392;44.644;11.448;2022-07-06T10:29:14;27.60;99.90
12655;DHT22;6392;44.644;11.448;2022-07-06T10:31:44;27.60;99.90
12655;DHT22;6392;44.644;11.448;2022-07-06T10:34:21;27.60;99.90
12655;DHT22;6392;44.644;11.448;2022-07-06T10:36:50;27.60;99.90
12655;DHT22;6392;44.644;11.448;2022-07-06T10:39:32;27.60;99.90
12655;DHT22;6392;44.644;11.448;2022-07-06T10:42:41;27.60;99.90
12655;DHT22;6392;44.644;11.448;2022-07-06T10:45:10;27.60;99.90
12655;DHT22;6392;44.644;11.448;2022-07-06T10:47:39;27.60;99.90
12655;DHT22;6392;44.644;11.448;2022-07-06T10:50:08;27.60;99.90
12655;DHT22;6392;44.644;11.448;2022-07-06T10:52:57;27.60;99.90
12655;DHT22;6392;44.644;11.448;2022-07-06T10:55:29;27.60;99.90
12655;DHT22;6392;44.644;11.448;2022-07-06T10:58:05;27.60;99.90
12655;DHT22;6392;44.644;11.448;2022-07-06T11:00:52;27.60;99.90
12655;DHT22;6392;44.644;11.448;2022-07-06T11:03:33;27.60;99.90
12655;DHT22;6392;44.644;11.448;2022-07-06T11:06:06;27.60;99.90
12655;DHT22;6392;44.644;11.448;2022-07-06T11:08:54;27.70;99.90
12655;DHT22;6392;44.644;11.448;2022-07-06T11:11:24;27.70;99.90
12655;DHT22;6392;44.644;11.448;2022-07-06T11:13:56;27.70;99.90
12655;DHT22;6392;44.644;11.448;2022-07-06T11:16:26;27.70;99.90
12655;DHT22;6392;44.644;11.448;2022-07-06T11:19:11;27.70;99.90
12655;DHT22;6392;44.644;11.448;2022-07-06T11:21:46;27.80;99.90
12655;DHT22;6392;44.644;11.448;2022-07-06T11:24:16;27.80;99.90
12655;DHT22;6392;44.644;11.448;2022-07-06T11:26:45;27.80;99.90
12655;DHT22;6392;44.644;11.448;2022-07-06T11:29:14;27.80;99.90
12655;DHT22;6392;44.644;11.448;2022-07-06T11:31:49;27.80;99.90
12655;DHT22;6392;44.644;11.448;2022-07-06T11:34:19;27.80;99.90
12655;DHT22;6392;44.644;11.448;2022-07-06T11:36:48;27.70;99.90
12655;DHT22;6392;44.644;11.448;2022-07-06T11:39:20;27.70;99.90
12655;DHT22;6392;44.644;11.448;2022-07-06T11:41:54;27.80;99.90
12655;DHT22;6392;44.644;11.448;2022-07-06T11:44:21;27.70;99.90
12655;DHT22;6392;44.644;11.448;2022-07-06T11:46:49;27.70;99.90
12655;DHT22;6392;44.644;11.448;2022-07-06T11:49:17;27.80;99.90
12655;DHT22;6392;44.644;11.448;2022-07-06T11:51:46;27.80;99.90
12655;DHT22;6392;44.644;11.448;2022-07-06T11:54:17;27.80;99.90
12655;DHT22;6392;44.644;11.448;2022-07-06T11:56:51;27.80;99.90
12655;DHT22;6392;44.644;11.448;2022-07-06T11:59:25;27.90;99.90
12655;DHT22;6392;44.644;11.448;2022-07-06T12:01:58;28.00;99.90
12655;DHT22;6392;44.644;11.448;2022-07-06T12:04:26;27.90;99.90
12655;DHT22;6392;44.644;11.448;2022-07-06T12:06:53;28.00;99.90
12655;DHT22;6392;44.644;11.448;2022-07-06T12:09:21;28.00;99.90
12655;DHT22;6392;44.644;11.448;2022-07-06T12:11:49;28.00;99.90
12655;DHT22;6392;44.644;11.448;2022-07-06T12:14:19;28.00;99.90
12655;DHT22;6392;44.644;11.448;2022-07-06T12:16:49;28.10;99.90
12655;DHT22;6392;44.644;11.448;2022-07-06T12:19:17;28.10;99.90
12655;DHT22;6392;44.644;11.448;2022-07-06T12:21:48;28.10;99.90
12655;DHT22;6392;44.644;11.448;2022-07-06T12:24:21;28.10;99.90
12655;DHT22;6392;44.644;11.448;2022-07-06T12:26:49;28.10;99.90
12655;DHT22;6392;44.644;11.448;2022-07-06T12:29:17;28.10;99.90
12655;DHT22;6392;44.644;11.448;2022-07-06T12:31:48;28.10;99.90
12655;DHT22;6392;44.644;11.448;2022-07-06T12:34:17;28.10;99.90
12655;DHT22;6392;44.644;11.448;2022-07-06T12:36:45;28.20;99.90
12655;DHT22;6392;44.644;11.448;2022-07-06T12:39:13;28.30;99.90
12655;DHT22;6392;44.644;11.448;2022-07-06T12:41:48;28.20;99.90
12655;DHT22;6392;44.644;11.448;2022-07-06T12:44:22;28.30;99.90
12655;DHT22;6392;44.644;11.448;2022-07-06T12:46:50;28.20;99.90
12655;DHT22;6392;44.644;11.448;2022-07-06T12:49:20;28.20;99.90
12655;DHT22;6392;44.644;11.448;2022-07-06T12:51:56;28.30;99.90
12655;DHT22;6392;44.644;11.448;2022-07-06T12:54:26;28.40;99.90
12655;DHT22;6392;44.644;11.448;2022-07-06T12:57:13;28.30;99.90
12655;DHT22;6392;44.644;11.448;2022-07-06T12:59:42;28.30;99.90
12655;DHT22;6392;44.644;11.448;2022-07-06T13:02:18;28.40;99.90
12655;DHT22;6392;44.644;11.448;2022-07-06T13:04:54;28.40;99.90
12655;DHT22;6392;44.644;11.448;2022-07-06T13:07:22;28.50;99.90
12655;DHT22;6392;44.644;11.448;2022-07-06T13:09:50;28.40;99.90
12655;DHT22;6392;44.644;11.448;2022-07-06T13:12:21;28.50;99.90
12655;DHT22;6392;44.644;11.448;2022-07-06T13:14:48;28.50;99.90
12655;DHT22;6392;44.644;11.448;2022-07-06T13:17:17;28.50;99.90
12655;DHT22;6392;44.644;11.448;2022-07-06T13:19:44;28.60;99.90
12655;DHT22;6392;44.644;11.448;2022-07-06T13:22:12;28.60;99.90
12655;DHT22;6392;44.644;11.448;2022-07-06T13:24:39;28.60;99.90
12655;DHT22;6392;44.644;11.448;2022-07-06T13:27:08;28.60;99.90
12655;DHT22;6392;44.644;11.448;2022-07-06T13:29:36;28.60;99.90
12655;DHT22;6392;44.644;11.448;2022-07-06T13:32:04;28.60;99.90
12655;DHT22;6392;44.644;11.448;2022-07-06T13:34:32;28.60;99.90
12655;DHT22;6392;44.644;11.448;2022-07-06T13:37:02;28.60;99.90
12655;DHT22;6392;44.644;11.448;2022-07-06T13:39:29;28.60;99.90
12655;DHT22;6392;44.644;11.448;2022-07-06T13:41:57;28.60;99.90
12655;DHT22;6392;44.644;11.448;2022-07-06T13:44:25;28.60;99.90
12655;DHT22;6392;44.644;11.448;2022-07-06T13:46:55;28.70;99.90
12655;DHT22;6392;44.644;11.448;2022-07-06T13:49:27;28.80;99.90
12655;DHT22;6392;44.644;11.448;2022-07-06T13:51:54;28.80;99.90
12655;DHT22;6392;44.644;11.448;2022-07-06T13:54:28;28.80;99.90
12655;DHT22;6392;44.644;11.448;2022-07-06T13:56:55;28.80;99.90
12655;DHT22;6392;44.644;11.448;2022-07-06T13:59:22;29.00;99.90
12655;DHT22;6392;44.644;11.448;2022-07-06T14:01:50;28.90;99.90
12655;DHT22;6392;44.644;11.448;2022-07-06T14:04:20;28.70;99.90
12655;DHT22;6392;44.644;11.448;2022-07-06T14:06:52;28.70;99.90
12655;DHT22;6392;44.644;11.448;2022-07-06T14:09:25;28.70;99.90
12655;DHT22;6392;44.644;11.448;2022-07-06T14:11:53;28.30;99.90
12655;DHT22;6392;44.644;11.448;2022-07-06T14:14:20;28.20;99.90
12655;DHT22;6392;44.644;11.448;2022-07-06T14:16:47;28.60;99.90
12655;DHT22;6392;44.644;11.448;2022-07-06T14:19:15;28.70;99.90
12655;DHT22;6392;44.644;11.448;2022-07-06T14:21:43;28.70;99.90
12655;DHT22;6392;44.644;11.448;2022-07-06T14:24:11;28.60;99.90
12655;DHT22;6392;44.644;11.448;2022-07-06T14:26:40;28.70;99.90
12655;DHT22;6392;44.644;11.448;2022-07-06T14:29:08;28.70;99.90
12655;DHT22;6392;44.644;11.448;2022-07-06T14:31:35;28.70;99.90
12655;DHT22;6392;44.644;11.448;2022-07-06T14:34:11;28.70;99.90
12655;DHT22;6392;44.644;11.448;2022-07-06T14:36:39;28.70;99.90
12655;DHT22;6392;44.644;11.448;2022-07-06T14:39:08;28.70;99.90
12655;DHT22;6392;44.644;11.448;2022-07-06T14:41:36;28.90;99.90
12655;DHT22;6392;44.644;11.448;2022-07-06T14:44:04;28.70;99.90
12655;DHT22;6392;44.644;11.448;2022-07-06T14:46:31;28.70;99.90
12655;DHT22;6392;44.644;11.448;2022-07-06T14:49:00;28.60;99.90
12655;DHT22;6392;44.644;11.448;2022-07-06T14:51:27;28.60;99.90
12655;DHT22;6392;44.644;11.448;2022-07-06T14:53:54;28.70;99.90
12655;DHT22;6392;44.644;11.448;2022-07-06T14:56:23;28.70;99.90
12655;DHT22;6392;44.644;11.448;2022-07-06T14:58:51;28.70;99.90
12655;DHT22;6392;44.644;11.448;2022-07-06T15:01:18;28.70;99.90
12655;DHT22;6392;44.644;11.448;2022-07-06T15:03:45;28.70;99.90
12655;DHT22;6392;44.644;11.448;2022-07-06T15:06:14;28.70;99.90
12655;DHT22;6392;44.644;11.448;2022-07-06T15:08:41;28.70;99.90
12655;DHT22;6392;44.644;11.448;2022-07-06T15:11:14;28.70;99.90
12655;DHT22;6392;44.644;11.448;2022-07-06T15:13:44;28.70;99.90
12655;DHT22;6392;44.644;11.448;2022-07-06T15:16:11;28.60;99.90
12655;DHT22;6392;44.644;11.448;2022-07-06T15:18:39;28.60;99.90
12655;DHT22;6392;44.644;11.448;2022-07-06T15:21:09;28.60;99.90
12655;DHT22;6392;44.644;11.448;2022-07-06T15:23:36;28.70;99.90
12655;DHT22;6392;44.644;11.448;2022-07-06T15:26:04;28.80;99.90
12655;DHT22;6392;44.644;11.448;2022-07-06T15:28:31;28.80;99.90
12655;DHT22;6392;44.644;11.448;2022-07-06T15:30:59;28.80;99.90
12655;DHT22;6392;44.644;11.448;2022-07-06T15:33:29;28.70;99.90
12655;DHT22;6392;44.644;11.448;2022-07-06T15:35:56;28.80;99.90
12655;DHT22;6392;44.644;11.448;2022-07-06T15:38:23;28.90;99.90
12655;DHT22;6392;44.644;11.448;2022-07-06T15:40:54;29.00;99.90
12655;DHT22;6392;44.644;11.448;2022-07-06T15:43:28;29.00;99.90
12655;DHT22;6392;44.644;11.448;2022-07-06T15:45:57;28.90;99.90